ARG1408 SABE-SAME
Flight info
| Callsign | ARG1408 |
|---|---|
| Flight time | N/A |
| Altitude | FL340 |
| Route | PAL9 NEPIS NIN UL405 PAPIR |
| Aircraft | B738/M-SDE2E3FGHIRWXY/LB1 |
Departure
| Time | 2026-05-07 12:42 |
|---|---|
| Airport | Aeroparque Jorge Newbery (SABE) |
Arrival
| Time | N/A |
|---|---|
| Airport | Governor Francisco Gabrielli International Airport (SAME) |
| Time | Latitude | Longitude | Altitude | Speed | Heading |
|---|---|---|---|---|---|
| 2026-05-07 12:24 | -34.55719 | -58.41402 | -14 ft | 0 kts | 30° |
| 2026-05-07 12:29 | -34.55720 | -58.41402 | -14 ft | 0 kts | 30° |
| 2026-05-07 12:30 | -34.55722 | -58.41404 | -13 ft | 2 kts | 29° |
| 2026-05-07 12:30 | -34.55734 | -58.41412 | -13 ft | 1 kts | 30° |
| 2026-05-07 12:30 | -34.55744 | -58.41418 | -13 ft | 2 kts | 7° |
| 2026-05-07 12:31 | -34.55759 | -58.41416 | -13 ft | 2 kts | 335° |
| 2026-05-07 12:31 | -34.55769 | -58.41406 | -13 ft | 1 kts | 307° |
| 2026-05-07 12:31 | -34.55773 | -58.41399 | -13 ft | 1 kts | 301° |
| 2026-05-07 12:31 | -34.55774 | -58.41397 | -13 ft | 0 kts | 302° |
| 2026-05-07 12:34 | -34.55773 | -58.41398 | -13 ft | 1 kts | 302° |
| 2026-05-07 12:34 | -34.55767 | -58.41410 | -13 ft | 2 kts | 302° |
| 2026-05-07 12:34 | -34.55755 | -58.41434 | -13 ft | 4 kts | 301° |
| 2026-05-07 12:34 | -34.55741 | -58.41462 | -13 ft | 4 kts | 299° |
| 2026-05-07 12:35 | -34.55729 | -58.41489 | -13 ft | 4 kts | 299° |
| 2026-05-07 12:35 | -34.55720 | -58.41520 | -13 ft | 4 kts | 271° |
| 2026-05-07 12:35 | -34.55735 | -58.41555 | -14 ft | 5 kts | 220° |
| 2026-05-07 12:35 | -34.55764 | -58.41581 | -14 ft | 5 kts | 211° |
| 2026-05-07 12:36 | -34.55790 | -58.41587 | -14 ft | 3 kts | 168° |
| 2026-05-07 12:36 | -34.55805 | -58.41574 | -13 ft | 4 kts | 128° |
| 2026-05-07 12:36 | -34.55823 | -58.41537 | -13 ft | 7 kts | 118° |
| 2026-05-07 12:36 | -34.55848 | -58.41478 | -12 ft | 9 kts | 116° |
| 2026-05-07 12:37 | -34.55882 | -58.41397 | -12 ft | 12 kts | 116° |
| 2026-05-07 12:37 | -34.55923 | -58.41301 | -11 ft | 12 kts | 118° |
| 2026-05-07 12:37 | -34.55968 | -58.41222 | -10 ft | 10 kts | 127° |
| 2026-05-07 12:37 | -34.56007 | -58.41160 | -9 ft | 9 kts | 127° |
| 2026-05-07 12:38 | -34.56047 | -58.41097 | -10 ft | 10 kts | 127° |
| 2026-05-07 12:38 | -34.56093 | -58.41025 | -10 ft | 11 kts | 127° |
| 2026-05-07 12:38 | -34.56141 | -58.40943 | -11 ft | 13 kts | 124° |
| 2026-05-07 12:38 | -34.56170 | -58.40842 | -12 ft | 13 kts | 103° |
| 2026-05-07 12:39 | -34.56214 | -58.40747 | -13 ft | 13 kts | 123° |
| 2026-05-07 12:39 | -34.56262 | -58.40658 | -14 ft | 12 kts | 123° |
| 2026-05-07 12:39 | -34.56311 | -58.40576 | -15 ft | 12 kts | 131° |
| 2026-05-07 12:39 | -34.56368 | -58.40510 | -15 ft | 11 kts | 139° |
| 2026-05-07 12:40 | -34.56421 | -58.40455 | -15 ft | 9 kts | 139° |
| 2026-05-07 12:40 | -34.56465 | -58.40406 | -15 ft | 8 kts | 138° |
| 2026-05-07 12:40 | -34.56511 | -58.40373 | -15 ft | 7 kts | 181° |
| 2026-05-07 12:40 | -34.56544 | -58.40392 | -14 ft | 4 kts | 219° |
| 2026-05-07 12:41 | -34.56556 | -58.40411 | -13 ft | 2 kts | 249° |
| 2026-05-07 12:41 | -34.56552 | -58.40442 | -13 ft | 8 kts | 294° |
| 2026-05-07 12:41 | -34.56439 | -58.40650 | -11 ft | 65 kts | 303° |
| 2026-05-07 12:41 | -34.56062 | -58.41330 | -8 ft | 131 kts | 303° |
| 2026-05-07 12:42 | -34.55458 | -58.42386 | 177 ft | 169 kts | 303° |
| 2026-05-07 12:42 | -34.54829 | -58.43461 | 863 ft | 172 kts | 302° |
| 2026-05-07 12:42 | -34.53959 | -58.44365 | 1298 ft | 197 kts | 328° |
| 2026-05-07 12:42 | -34.52612 | -58.44735 | 1652 ft | 226 kts | 354° |
| 2026-05-07 12:43 | -34.50972 | -58.44468 | 1899 ft | 256 kts | 15° |
| 2026-05-07 12:43 | -34.49334 | -58.43579 | 2426 ft | 271 kts | 30° |
| 2026-05-07 12:43 | -34.47790 | -58.42425 | 3330 ft | 267 kts | 33° |
| 2026-05-07 12:43 | -34.46317 | -58.41263 | 4209 ft | 265 kts | 33° |
| 2026-05-07 12:44 | -34.44738 | -58.40050 | 4528 ft | 287 kts | 32° |
| 2026-05-07 12:44 | -34.43103 | -58.38825 | 5399 ft | 285 kts | 31° |
| 2026-05-07 12:44 | -34.41516 | -58.37528 | 6144 ft | 288 kts | 41° |
| 2026-05-07 12:44 | -34.40379 | -58.35738 | 6904 ft | 289 kts | 64° |
| 2026-05-07 12:45 | -34.39931 | -58.33539 | 7535 ft | 295 kts | 88° |
| 2026-05-07 12:45 | -34.40269 | -58.31215 | 8099 ft | 302 kts | 113° |
| 2026-05-07 12:45 | -34.41378 | -58.29206 | 8687 ft | 305 kts | 137° |
| 2026-05-07 12:45 | -34.43073 | -58.27896 | 9317 ft | 305 kts | 162° |
| 2026-05-07 12:46 | -34.44998 | -58.27493 | 9831 ft | 306 kts | 186° |
| 2026-05-07 12:46 | -34.47027 | -58.28047 | 10142 ft | 314 kts | 209° |
| 2026-05-07 12:46 | -34.48642 | -58.29426 | 10420 ft | 320 kts | 230° |
| 2026-05-07 12:46 | -34.49781 | -58.31459 | 10702 ft | 327 kts | 248° |
| 2026-05-07 12:47 | -34.50581 | -58.33834 | 11238 ft | 332 kts | 253° |
| 2026-05-07 12:47 | -34.51328 | -58.36282 | 11930 ft | 334 kts | 254° |
| 2026-05-07 12:47 | -34.52151 | -58.38764 | 12697 ft | 336 kts | 252° |
| 2026-05-07 12:47 | -34.53054 | -58.41234 | 13306 ft | 342 kts | 251° |
| 2026-05-07 12:48 | -34.54004 | -58.43671 | 14038 ft | 343 kts | 251° |
| 2026-05-07 12:48 | -34.55008 | -58.46176 | 14730 ft | 347 kts | 252° |
| 2026-05-07 12:48 | -34.56029 | -58.48693 | 15407 ft | 350 kts | 252° |
| 2026-05-07 12:48 | -34.57093 | -58.51324 | 16058 ft | 354 kts | 253° |
| 2026-05-07 12:49 | -34.58133 | -58.53885 | 16743 ft | 355 kts | 253° |
| 2026-05-07 12:49 | -34.59193 | -58.56501 | 17300 ft | 358 kts | 254° |
| 2026-05-07 12:49 | -34.60251 | -58.59124 | 17716 ft | 364 kts | 254° |
| 2026-05-07 12:49 | -34.61421 | -58.61783 | 18328 ft | 371 kts | 249° |
| 2026-05-07 12:50 | -34.62691 | -58.64366 | 18717 ft | 370 kts | 255° |
| 2026-05-07 12:50 | -34.63339 | -58.67100 | 19461 ft | 346 kts | 273° |
| 2026-05-07 12:50 | -34.63401 | -58.69865 | 19930 ft | 341 kts | 281° |
| 2026-05-07 12:50 | -34.63226 | -58.72632 | 20412 ft | 342 kts | 284° |